createdAt,value
2019-03-28T00:00:35.037Z,57.55
2019-03-28T00:02:38.573Z,61.08
2019-03-28T00:04:42.375Z,52.65
2019-03-28T00:06:46.223Z,59.05
2019-03-28T00:08:49.760Z,58.02
2019-03-28T00:10:53.548Z,67.00
2019-03-28T00:12:57.157Z,67.17
2019-03-28T00:15:00.826Z,65.30
2019-03-28T00:17:04.429Z,60.38
2019-03-28T00:19:07.975Z,72.22
2019-03-28T00:21:11.940Z,69.92
2019-03-28T00:23:19.633Z,56.95
2019-03-28T00:25:25.456Z,62.13
2019-03-28T00:27:29.022Z,65.32
2019-03-28T00:29:32.595Z,60.10
2019-03-28T00:31:36.073Z,67.00
2019-03-28T00:33:39.606Z,64.42
2019-03-28T00:35:43.265Z,62.48
2019-03-28T00:37:46.727Z,56.23
2019-03-28T00:39:50.262Z,67.25
2019-03-28T00:41:53.796Z,60.80
2019-03-28T00:43:58.145Z,58.92
2019-03-28T00:46:01.971Z,51.77
2019-03-28T00:48:05.743Z,62.40
2019-03-28T00:50:09.900Z,60.05
2019-03-28T00:52:13.512Z,57.27
2019-03-28T00:54:16.980Z,57.80
2019-03-28T00:56:20.516Z,55.50
2019-03-28T00:58:23.975Z,59.05
2019-03-28T01:00:27.897Z,55.25
2019-03-28T01:02:31.461Z,53.13
2019-03-28T01:04:34.924Z,52.93
2019-03-28T01:06:38.488Z,53.83
2019-03-28T01:08:41.956Z,51.80
2019-03-28T01:10:45.420Z,58.98
2019-03-28T01:12:48.879Z,57.15
2019-03-28T01:14:52.340Z,52.95
2019-03-28T01:16:56.014Z,56.33
2019-03-28T01:18:59.692Z,54.23
2019-03-28T01:21:03.568Z,51.85
2019-03-28T01:23:07.100Z,53.70
2019-03-28T01:25:11.631Z,64.80
2019-03-28T01:27:15.090Z,59.42
2019-03-28T01:29:18.957Z,54.90
2019-03-28T01:31:22.484Z,56.02
2019-03-28T01:33:26.044Z,59.93
2019-03-28T01:35:29.850Z,64.95
2019-03-28T01:37:33.384Z,71.55
2019-03-28T01:39:37.244Z,67.87
2019-03-28T01:41:41.148Z,58.15
2019-03-28T01:43:45.070Z,58.98
2019-03-28T01:45:48.616Z,57.10
2019-03-28T01:47:52.128Z,54.55
2019-03-28T01:49:55.594Z,57.80
2019-03-28T01:51:59.238Z,57.10
2019-03-28T01:54:03.353Z,57.62
2019-03-28T01:56:06.941Z,59.53
2019-03-28T01:58:10.476Z,61.30
2019-03-28T02:00:14.282Z,62.00
2019-03-28T02:02:17.744Z,53.98
2019-03-28T02:04:21.546Z,60.65
2019-03-28T02:06:25.007Z,58.85
2019-03-28T02:08:28.513Z,60.15
2019-03-28T02:10:32.053Z,54.33
2019-03-28T02:12:35.587Z,53.20
2019-03-28T02:14:39.230Z,62.15
2019-03-28T02:16:42.860Z,60.83
2019-03-28T02:18:46.320Z,60.12
2019-03-28T02:20:50.051Z,65.03
2019-03-28T02:22:54.440Z,55.50
2019-03-28T02:24:57.932Z,60.63
2019-03-28T02:27:01.401Z,67.45
2019-03-28T02:29:05.003Z,60.58
2019-03-28T02:31:08.464Z,60.30
2019-03-28T02:33:12.071Z,60.40
2019-03-28T02:35:15.581Z,61.55
2019-03-28T02:37:19.296Z,60.70
2019-03-28T02:39:22.814Z,58.58
2019-03-28T02:41:26.640Z,57.25
2019-03-28T02:43:30.588Z,59.00
2019-03-28T02:45:34.114Z,58.70
2019-03-28T02:47:37.938Z,65.83
2019-03-28T02:49:41.417Z,62.90
2019-03-28T02:51:45.044Z,64.22
2019-03-28T02:53:48.506Z,67.47
2019-03-28T02:55:51.974Z,64.30
2019-03-28T02:57:55.710Z,67.55
2019-03-28T02:59:59.356Z,63.78
2019-03-28T03:02:03.211Z,65.05
2019-03-28T03:04:06.812Z,71.57
2019-03-28T03:06:10.596Z,65.72
2019-03-28T03:08:14.057Z,62.15
2019-03-28T03:10:17.662Z,66.22
2019-03-28T03:12:21.372Z,78.60
2019-03-28T03:14:24.960Z,63.30
2019-03-28T03:16:28.492Z,75.50
2019-03-28T03:18:32.016Z,68.22
2019-03-28T03:20:35.481Z,70.95
2019-03-28T03:22:38.948Z,70.57
2019-03-28T03:24:42.501Z,79.75
2019-03-28T03:26:46.225Z,67.00
2019-03-28T03:28:49.689Z,75.57
2019-03-28T03:30:53.411Z,69.45
2019-03-28T03:32:57.040Z,78.25
2019-03-28T03:35:01.983Z,76.85
2019-03-28T03:37:06.103Z,82.15
2019-03-28T03:39:10.105Z,83.90
2019-03-28T03:41:13.755Z,85.15
2019-03-28T03:43:17.613Z,87.65
2019-03-28T03:45:21.193Z,82.33
2019-03-28T03:47:24.793Z,77.78
2019-03-28T03:49:28.262Z,71.35
2019-03-28T03:51:31.909Z,86.02
2019-03-28T03:53:35.377Z,88.65
2019-03-28T03:55:39.197Z,86.05
2019-03-28T03:57:42.729Z,88.85
2019-03-28T03:59:46.196Z,86.17
2019-03-28T04:01:49.958Z,93.87
2019-03-28T04:03:53.748Z,87.97
2019-03-28T04:05:57.297Z,87.75
2019-03-28T04:08:01.005Z,89.30
2019-03-28T04:10:06.077Z,119.77
2019-03-28T04:12:09.809Z,80.07
2019-03-28T04:14:13.324Z,81.08
2019-03-28T04:16:16.863Z,76.30
2019-03-28T04:18:22.196Z,86.92
2019-03-28T04:20:26.319Z,77.45
2019-03-28T04:22:29.932Z,88.87
2019-03-28T04:24:33.782Z,80.05
2019-03-28T04:26:37.331Z,83.60
2019-03-28T04:28:40.865Z,87.88
2019-03-28T04:30:44.329Z,96.60
2019-03-28T04:32:47.889Z,92.70
2019-03-28T04:34:51.460Z,85.17
2019-03-28T04:36:54.957Z,77.10
2019-03-28T04:38:58.469Z,78.35
2019-03-28T04:41:02.008Z,84.70
2019-03-28T04:43:05.644Z,87.40
2019-03-28T04:45:09.833Z,81.57
2019-03-28T04:47:13.448Z,81.67
2019-03-28T04:49:16.989Z,83.15
2019-03-28T04:51:20.532Z,90.42
2019-03-28T04:53:24.181Z,75.65
2019-03-28T04:55:27.736Z,80.30
2019-03-28T04:57:31.599Z,79.97
2019-03-28T04:59:35.056Z,82.70
2019-03-28T05:01:39.408Z,89.25
2019-03-28T05:03:42.971Z,97.70
2019-03-28T05:05:46.508Z,89.60
2019-03-28T05:07:50.305Z,87.17
2019-03-28T05:09:53.984Z,88.20
2019-03-28T05:11:57.449Z,78.02
2019-03-28T05:14:00.909Z,78.00
2019-03-28T05:16:04.540Z,82.37
2019-03-28T05:18:08.317Z,80.70
2019-03-28T05:20:13.441Z,79.03
2019-03-28T05:22:17.444Z,85.62
2019-03-28T05:24:20.897Z,78.50
2019-03-28T05:26:24.465Z,78.57
2019-03-28T05:28:28.071Z,79.77
2019-03-28T05:30:31.540Z,83.27
2019-03-28T05:32:35.341Z,82.30
2019-03-28T05:34:38.806Z,78.57
2019-03-28T05:36:42.260Z,79.62
2019-03-28T05:38:45.720Z,82.15
2019-03-28T05:40:49.501Z,85.03
2019-03-28T05:42:53.185Z,89.28
2019-03-28T05:44:56.720Z,86.10
2019-03-28T05:47:00.496Z,88.52
2019-03-28T05:49:04.352Z,112.65
2019-03-28T05:51:08.628Z,90.77
2019-03-28T05:53:12.088Z,98.90
2019-03-28T05:55:15.632Z,111.60
2019-03-28T05:57:19.361Z,121.47
2019-03-28T05:59:23.731Z,99.37
2019-03-28T06:01:27.268Z,101.30
2019-03-28T06:03:30.914Z,89.20
2019-03-28T06:05:34.376Z,106.00
2019-03-28T06:07:37.913Z,103.40
2019-03-28T06:09:41.740Z,106.37
2019-03-28T06:11:45.271Z,108.45
2019-03-28T06:13:49.037Z,103.83
2019-03-28T06:15:52.837Z,124.45
2019-03-28T06:17:56.459Z,94.97
2019-03-28T06:19:59.928Z,91.17
2019-03-28T06:22:04.245Z,131.25
2019-03-28T06:24:07.783Z,134.75
2019-03-28T06:26:11.253Z,100.12
2019-03-28T06:28:15.145Z,97.57
2019-03-28T06:30:18.742Z,94.75
2019-03-28T06:32:24.148Z,81.17
2019-03-28T06:34:27.607Z,83.52
2019-03-28T06:36:31.068Z,85.22
2019-03-28T06:38:34.531Z,93.58
2019-03-28T06:40:38.084Z,77.53
2019-03-28T06:42:41.880Z,88.42
2019-03-28T06:44:45.348Z,80.03
2019-03-28T06:46:48.882Z,76.00
2019-03-28T06:48:52.665Z,78.35
2019-03-28T06:50:56.528Z,86.78
2019-03-28T06:53:00.068Z,72.35
2019-03-28T06:55:04.156Z,79.67
2019-03-28T06:57:08.072Z,75.65
2019-03-28T06:59:11.707Z,71.65
2019-03-28T07:01:15.239Z,68.00
2019-03-28T07:03:19.034Z,66.17
2019-03-28T07:05:22.823Z,68.10
2019-03-28T07:07:26.464Z,62.58
2019-03-28T07:09:30.000Z,70.85
2019-03-28T07:11:33.481Z,66.33
2019-03-28T07:13:36.948Z,61.60
2019-03-28T07:15:41.261Z,57.38
2019-03-28T07:17:44.864Z,70.87
2019-03-28T07:19:48.324Z,68.12
2019-03-28T07:21:52.948Z,64.55
2019-03-28T07:23:56.404Z,62.13
2019-03-28T07:26:00.272Z,59.42
2019-03-28T07:28:06.243Z,63.28
2019-03-28T07:30:12.066Z,56.02
2019-03-28T07:32:15.600Z,57.10
2019-03-28T07:34:19.368Z,68.67
2019-03-28T07:36:23.205Z,51.23
2019-03-28T07:38:26.728Z,49.30
2019-03-28T07:40:33.361Z,48.50
2019-03-28T07:42:35.688Z,80.53
2019-03-28T07:44:39.521Z,50.38
2019-03-28T07:46:42.985Z,106.67
2019-03-28T07:48:46.552Z,52.53
2019-03-28T07:50:50.277Z,63.90
2019-03-28T07:52:53.869Z,90.72
2019-03-28T07:54:57.496Z,102.25
2019-03-28T07:57:01.834Z,97.78
2019-03-28T07:59:05.449Z,166.55
2019-03-28T08:01:09.002Z,185.75
2019-03-28T08:03:12.540Z,115.45
2019-03-28T08:05:16.700Z,101.27
2019-03-28T08:07:20.302Z,100.55
2019-03-28T08:09:36.039Z,72.50
2019-03-28T08:11:29.160Z,93.25
2019-03-28T08:13:33.561Z,74.58
2019-03-28T08:15:37.023Z,70.57
2019-03-28T08:17:40.563Z,55.85
2019-03-28T08:19:44.101Z,50.10
2019-03-28T08:21:47.644Z,49.58
2019-03-28T08:23:51.248Z,42.70
2019-03-28T08:25:54.712Z,41.33
2019-03-28T08:27:59.057Z,42.78
2019-03-28T08:30:02.525Z,40.08
2019-03-28T08:32:08.919Z,42.20
2019-03-28T08:34:13.713Z,45.50
2019-03-28T08:36:17.768Z,41.13
2019-03-28T08:38:22.445Z,48.35
2019-03-28T08:40:35.072Z,41.60
2019-03-28T08:42:38.666Z,45.80
2019-03-28T08:44:42.229Z,52.93
2019-03-28T08:46:46.073Z,46.73
2019-03-28T08:48:49.540Z,47.65
2019-03-28T08:50:53.008Z,47.25
2019-03-28T08:52:56.469Z,130.07
2019-03-28T08:54:59.943Z,412.77
2019-03-28T08:57:03.589Z,312.02
2019-03-28T08:59:07.125Z,61.48
2019-03-28T09:01:10.865Z,140.05
2019-03-28T09:03:14.401Z,79.42
2019-03-28T09:05:18.837Z,58.73
2019-03-28T09:07:22.669Z,41.55
2019-03-28T09:09:26.284Z,32.55
2019-03-28T09:11:29.821Z,31.62
2019-03-28T09:13:33.281Z,33.75
2019-03-28T09:15:43.493Z,64.82
2019-03-28T09:17:42.124Z,523.13
2019-03-28T09:19:45.967Z,37.33
2019-03-28T09:21:49.501Z,74.72
2019-03-28T09:23:52.956Z,132.32
2019-03-28T09:25:57.298Z,51.40
2019-03-28T09:28:00.787Z,48.80
2019-03-28T09:30:07.307Z,37.28
2019-03-28T09:32:10.845Z,47.33
2019-03-28T09:34:15.248Z,53.75
2019-03-28T09:36:18.719Z,79.72
2019-03-28T09:38:22.476Z,70.62
2019-03-28T09:40:26.018Z,84.35
2019-03-28T09:42:30.553Z,115.52
2019-03-28T09:44:34.056Z,107.27
2019-03-28T09:46:37.585Z,90.53
2019-03-28T09:48:41.045Z,31.90
2019-03-28T09:50:44.936Z,40.75
2019-03-28T09:52:48.477Z,47.08
2019-03-28T09:54:52.074Z,44.42
2019-03-28T09:56:55.609Z,37.03
2019-03-28T09:59:00.508Z,20.72
2019-03-28T10:01:04.851Z,23.40
2019-03-28T10:03:08.732Z,29.30
2019-03-28T10:05:12.636Z,35.85
2019-03-28T10:07:16.108Z,23.55
2019-03-28T10:09:19.648Z,25.27
2019-03-28T10:11:23.116Z,22.55
2019-03-28T10:13:26.581Z,16.97
2019-03-28T10:15:30.089Z,33.40
2019-03-28T10:17:33.744Z,27.30
2019-03-28T10:19:37.589Z,32.53
2019-03-28T10:21:41.067Z,35.17
2019-03-28T10:23:44.627Z,29.20
2019-03-28T10:25:48.148Z,32.83
2019-03-28T10:27:51.793Z,35.28
2019-03-28T10:29:55.481Z,23.40
2019-03-28T10:31:59.090Z,27.95
2019-03-28T10:34:02.619Z,39.60
2019-03-28T10:36:06.682Z,26.25
2019-03-28T10:38:10.211Z,37.75
2019-03-28T10:40:14.661Z,86.53
2019-03-28T10:42:18.224Z,67.22
2019-03-28T10:44:21.752Z,56.95
2019-03-28T10:46:26.476Z,61.00
2019-03-28T10:48:29.940Z,88.62
2019-03-28T10:50:40.830Z,72.30
2019-03-28T10:52:39.065Z,89.00
2019-03-28T10:54:43.153Z,47.73
2019-03-28T10:56:52.040Z,58.10
2019-03-28T10:58:52.804Z,74.53
2019-03-28T11:00:56.715Z,55.80
2019-03-28T11:03:00.313Z,71.55
2019-03-28T11:05:04.848Z,36.93
2019-03-28T11:07:08.423Z,40.03
2019-03-28T11:09:12.329Z,35.85
2019-03-28T11:11:15.792Z,33.92
2019-03-28T11:13:20.213Z,35.43
2019-03-28T11:15:24.040Z,31.73
2019-03-28T11:17:27.650Z,44.65
2019-03-28T11:19:31.545Z,30.77
2019-03-28T11:21:35.116Z,53.00
2019-03-28T11:23:38.776Z,30.02
2019-03-28T11:25:42.775Z,31.95
2019-03-28T11:27:46.649Z,31.93
2019-03-28T11:29:50.199Z,25.08
2019-03-28T11:31:54.053Z,27.50
2019-03-28T11:33:57.980Z,22.50
2019-03-28T11:36:01.962Z,20.65
2019-03-28T11:38:09.333Z,23.67
2019-03-28T11:40:12.835Z,24.00
2019-03-28T11:42:16.750Z,17.45
2019-03-28T11:44:20.325Z,21.37
2019-03-28T11:46:24.121Z,19.12
2019-03-28T11:48:27.954Z,18.92
2019-03-28T11:50:31.852Z,24.70
2019-03-28T11:52:35.968Z,26.35
2019-03-28T11:54:39.768Z,22.45
2019-03-28T11:56:43.305Z,20.80
2019-03-28T11:58:47.064Z,16.60
2019-03-28T12:00:51.793Z,17.42
2019-03-28T12:02:55.612Z,19.12
2019-03-28T12:04:59.521Z,104.60
2019-03-28T12:07:03.300Z,128.60
2019-03-28T12:09:07.605Z,28.47
2019-03-28T12:11:11.143Z,37.93
2019-03-28T12:13:14.612Z,20.97
2019-03-28T12:15:19.246Z,41.60
2019-03-28T12:17:22.888Z,26.15
2019-03-28T12:19:26.390Z,24.60
2019-03-28T12:21:29.900Z,38.28
2019-03-28T12:23:33.716Z,31.17
2019-03-28T12:25:37.256Z,25.45
2019-03-28T12:27:40.962Z,22.20
2019-03-28T12:29:44.509Z,22.13
2019-03-28T12:31:47.971Z,29.27
2019-03-28T12:33:51.616Z,28.90
2019-03-28T12:35:55.160Z,18.00
2019-03-28T12:37:58.628Z,30.82
2019-03-28T12:40:02.804Z,10.90
2019-03-28T12:42:06.411Z,17.25
2019-03-28T12:44:10.272Z,11.78
2019-03-28T12:46:14.099Z,10.15
2019-03-28T12:48:17.638Z,16.15
2019-03-28T12:50:21.309Z,13.08
2019-03-28T12:52:25.205Z,60.78
2019-03-28T12:54:29.035Z,21.73
2019-03-28T12:56:32.554Z,86.50
2019-03-28T12:58:36.103Z,43.65
2019-03-28T13:00:39.773Z,32.73
2019-03-28T13:02:43.412Z,15.48
2019-03-28T13:04:47.204Z,26.62
2019-03-28T13:06:51.005Z,86.97
2019-03-28T13:08:54.761Z,17.90
2019-03-28T13:10:58.300Z,9.58
2019-03-28T13:13:02.121Z,18.05
2019-03-28T13:15:07.729Z,64.77
2019-03-28T13:17:11.313Z,62.75
2019-03-28T13:19:14.873Z,23.40
2019-03-28T13:21:18.336Z,19.70
2019-03-28T13:23:21.804Z,32.90
2019-03-28T13:25:26.133Z,25.05
2019-03-28T13:27:29.881Z,17.50
2019-03-28T13:29:33.521Z,20.82
2019-03-28T13:31:37.026Z,13.22
2019-03-28T13:33:40.491Z,19.98
2019-03-28T13:35:44.238Z,18.23
2019-03-28T13:37:48.652Z,39.40
2019-03-28T13:39:53.045Z,56.00
2019-03-28T13:41:57.376Z,42.75
2019-03-28T13:44:01.196Z,17.87
2019-03-28T13:46:04.796Z,45.60
2019-03-28T13:48:08.347Z,32.88
2019-03-28T13:50:12.981Z,33.67
2019-03-28T13:52:16.825Z,19.50
2019-03-28T13:54:23.231Z,29.48
2019-03-28T13:56:26.261Z,52.27
2019-03-28T13:58:30.185Z,26.75
2019-03-28T14:00:34.388Z,17.50
2019-03-28T14:02:37.964Z,29.85
2019-03-28T14:04:42.409Z,21.33
2019-03-28T14:06:46.201Z,31.85
2019-03-28T14:08:50.002Z,14.87
2019-03-28T14:10:53.585Z,146.90
2019-03-28T14:12:57.502Z,65.52
2019-03-28T14:15:01.434Z,69.05
2019-03-28T14:17:05.306Z,40.95
2019-03-28T14:19:09.316Z,33.05
2019-03-28T14:21:12.916Z,38.10
2019-03-28T14:23:17.206Z,40.17
2019-03-28T14:25:23.449Z,40.40
2019-03-28T14:27:27.285Z,31.70
2019-03-28T14:29:31.299Z,36.65
2019-03-28T14:31:35.076Z,37.70
2019-03-28T14:33:38.897Z,33.45
2019-03-28T14:35:42.429Z,24.02
2019-03-28T14:37:46.297Z,259.20
2019-03-28T14:39:50.204Z,26.68
2019-03-28T14:41:53.736Z,21.37
2019-03-28T14:43:57.372Z,37.40
2019-03-28T14:46:01.163Z,45.12
2019-03-28T14:48:06.768Z,48.28
2019-03-28T14:50:10.956Z,34.08
2019-03-28T14:52:17.321Z,303.70
2019-03-28T14:54:22.281Z,607.83
2019-03-28T14:56:26.600Z,102.15
2019-03-28T14:58:32.507Z,26.90
2019-03-28T15:00:48.127Z,308.80
2019-03-28T15:02:51.860Z,308.43
2019-03-28T15:04:55.403Z,302.32
2019-03-28T15:06:59.616Z,64.82
2019-03-28T15:09:06.014Z,53.60
2019-03-28T15:11:09.553Z,83.75
2019-03-28T15:13:13.019Z,77.62
2019-03-28T15:15:17.485Z,20.75
2019-03-28T15:17:21.357Z,31.65
2019-03-28T15:19:25.037Z,78.42
2019-03-28T15:21:28.577Z,41.53
2019-03-28T15:23:32.112Z,45.00
2019-03-28T15:25:35.696Z,47.78
2019-03-28T15:27:39.569Z,48.15
2019-03-28T15:29:43.139Z,23.30
2019-03-28T15:31:46.796Z,22.22
2019-03-28T15:33:50.264Z,36.50
2019-03-28T15:35:54.164Z,70.00
2019-03-28T15:37:57.636Z,66.37
2019-03-28T15:42:04.925Z,33.78
2019-03-28T15:44:08.460Z,25.72
2019-03-28T15:46:12.258Z,26.87
2019-03-28T15:48:15.977Z,35.20
2019-03-28T15:50:19.969Z,84.83
2019-03-28T15:52:27.267Z,65.17
2019-03-28T15:54:29.645Z,35.98
2019-03-28T15:56:33.418Z,24.65
2019-03-28T15:58:37.114Z,25.92
2019-03-28T16:00:41.704Z,23.00
2019-03-28T16:02:45.509Z,31.65
2019-03-28T16:04:49.200Z,41.95
2019-03-28T16:06:52.738Z,25.82
2019-03-28T16:08:56.364Z,19.87
2019-03-28T16:10:59.909Z,18.27
2019-03-28T16:13:03.368Z,17.42
2019-03-28T16:15:08.570Z,23.07
2019-03-28T16:17:12.125Z,26.93
2019-03-28T16:19:18.718Z,110.90
2019-03-28T16:21:22.252Z,41.25
2019-03-28T16:23:26.125Z,50.17
2019-03-28T16:25:29.671Z,35.60
2019-03-28T16:27:34.112Z,25.55
2019-03-28T16:29:37.941Z,27.98
2019-03-28T16:31:41.851Z,28.50
2019-03-28T16:33:45.749Z,24.67
2019-03-28T16:35:49.656Z,32.53
2019-03-28T16:37:53.857Z,31.95
2019-03-28T16:39:57.609Z,22.22
2019-03-28T16:42:01.478Z,27.15
2019-03-28T16:44:05.275Z,22.40
2019-03-28T16:46:09.213Z,24.55
2019-03-28T16:48:13.091Z,17.10
2019-03-28T16:50:17.309Z,17.85
2019-03-28T16:52:20.849Z,18.55
2019-03-28T16:54:24.701Z,21.00
2019-03-28T16:56:28.633Z,70.70
2019-03-28T16:58:32.172Z,164.72
2019-03-28T17:00:39.398Z,234.47
2019-03-28T17:02:43.302Z,419.37
2019-03-28T17:04:47.400Z,633.23
2019-03-28T17:06:51.613Z,552.52
2019-03-28T17:08:55.930Z,549.08
2019-03-28T17:10:59.725Z,696.42
2019-03-28T17:13:03.268Z,321.05
2019-03-28T17:15:08.989Z,271.30
2019-03-28T17:17:12.529Z,281.95
2019-03-28T17:19:16.068Z,105.70
2019-03-28T17:21:23.153Z,92.85
2019-03-28T17:23:25.996Z,96.42
2019-03-28T17:25:30.413Z,77.72
2019-03-28T17:27:34.241Z,129.40
2019-03-28T17:29:37.708Z,179.90
2019-03-28T17:31:41.164Z,123.02
2019-03-28T17:33:44.884Z,51.13
2019-03-28T17:35:48.857Z,57.58
2019-03-28T17:37:52.423Z,46.45
2019-03-28T17:39:55.921Z,109.97
2019-03-28T17:41:59.473Z,81.40
2019-03-28T17:44:03.160Z,76.62
2019-03-28T17:46:07.185Z,66.02
2019-03-28T17:48:10.860Z,68.50
2019-03-28T17:50:15.145Z,78.40
2019-03-28T17:52:18.612Z,139.60
2019-03-28T17:54:22.426Z,120.28
2019-03-28T17:56:25.943Z,195.00
2019-03-28T17:58:29.549Z,210.32
2019-03-28T18:00:33.234Z,233.68
2019-03-28T18:02:38.530Z,258.57
2019-03-28T18:04:47.755Z,226.10
2019-03-28T18:06:47.963Z,274.73
2019-03-28T18:08:51.595Z,436.00
2019-03-28T18:10:55.964Z,345.80
2019-03-28T18:12:59.884Z,420.85
2019-03-28T18:15:03.851Z,645.57
2019-03-28T18:17:07.887Z,515.28
2019-03-28T18:19:11.665Z,460.43
2019-03-28T18:21:15.205Z,336.70
2019-03-28T18:23:18.873Z,253.60
2019-03-28T18:25:22.485Z,122.17
2019-03-28T18:27:26.262Z,123.42
2019-03-28T18:29:30.164Z,105.12
2019-03-28T18:31:33.985Z,166.82
2019-03-28T18:33:37.874Z,428.50
2019-03-28T18:35:41.976Z,358.87
2019-03-28T18:37:45.801Z,375.75
2019-03-28T18:39:49.353Z,247.48
2019-03-28T18:41:56.346Z,515.42
2019-03-28T18:43:58.553Z,469.17
2019-03-28T18:46:03.120Z,241.80
2019-03-28T18:48:09.064Z,294.02
2019-03-28T18:50:12.731Z,479.48
2019-03-28T18:52:16.725Z,325.27
2019-03-28T18:54:20.496Z,516.95
2019-03-28T18:56:24.404Z,633.23
2019-03-28T18:58:27.933Z,146.45
2019-03-28T19:00:31.542Z,122.80
2019-03-28T19:02:35.240Z,80.45
2019-03-28T19:04:38.698Z,87.57
2019-03-28T19:06:43.006Z,75.55
2019-03-28T19:08:47.741Z,80.67
2019-03-28T19:10:52.150Z,157.50
2019-03-28T19:12:55.956Z,264.40
2019-03-28T19:14:59.870Z,208.05
2019-03-28T19:17:03.861Z,200.55
2019-03-28T19:19:07.941Z,202.82
2019-03-28T19:21:11.473Z,129.20
2019-03-28T19:23:15.293Z,112.92
2019-03-28T19:25:19.122Z,100.50
2019-03-28T19:27:22.661Z,232.98
2019-03-28T19:29:26.220Z,165.70
2019-03-28T19:31:30.661Z,153.53
2019-03-28T19:33:34.488Z,181.45
2019-03-28T19:35:40.504Z,170.97
2019-03-28T19:37:45.617Z,151.27
2019-03-28T19:39:49.962Z,130.10
2019-03-28T19:41:53.584Z,124.30
2019-03-28T19:43:57.695Z,130.47
2019-03-28T19:46:01.232Z,162.03
2019-03-28T19:48:06.991Z,182.70
2019-03-28T19:50:15.633Z,246.18
2019-03-28T19:52:19.615Z,323.15
2019-03-28T19:54:23.500Z,388.30
2019-03-28T19:56:27.072Z,251.85
2019-03-28T19:58:31.038Z,203.80
2019-03-28T20:00:34.806Z,163.32
2019-03-28T20:02:38.701Z,162.37
2019-03-28T20:04:44.518Z,163.30
2019-03-28T20:06:48.028Z,159.78
2019-03-28T20:08:51.845Z,176.80
2019-03-28T20:10:55.573Z,158.35
2019-03-28T20:12:59.432Z,167.70
2019-03-28T20:15:03.366Z,172.45
2019-03-28T20:17:06.992Z,195.57
2019-03-28T20:19:10.553Z,243.95
2019-03-28T20:21:14.287Z,263.02
2019-03-28T20:23:17.872Z,420.75
2019-03-28T20:25:21.729Z,338.37
2019-03-28T20:27:25.261Z,480.15
2019-03-28T20:29:29.641Z,451.93
2019-03-28T20:31:33.196Z,422.48
2019-03-28T20:33:37.880Z,707.88
2019-03-28T20:35:41.969Z,947.50
2019-03-28T20:37:45.501Z,733.50
2019-03-28T20:39:48.973Z,411.58
2019-03-28T20:41:52.789Z,262.82
2019-03-28T20:43:56.678Z,373.82
2019-03-28T20:46:00.611Z,360.52
2019-03-28T20:48:04.260Z,259.02
2019-03-28T20:50:08.902Z,239.00
2019-03-28T20:52:13.325Z,180.70
2019-03-28T20:54:16.867Z,179.90
2019-03-28T20:56:20.731Z,148.97
2019-03-28T20:58:24.626Z,185.03
2019-03-28T21:00:38.862Z,156.28
2019-03-28T21:02:43.381Z,138.72
2019-03-28T21:04:47.368Z,128.02
2019-03-28T21:06:51.397Z,136.47
2019-03-28T21:08:56.317Z,131.90
2019-03-28T21:11:00.056Z,219.72
2019-03-28T21:13:05.032Z,385.85
2019-03-28T21:15:09.269Z,284.80
2019-03-28T21:17:13.411Z,314.80
2019-03-28T21:19:16.949Z,257.62
2019-03-28T21:21:20.750Z,171.15
2019-03-28T21:23:24.230Z,158.82
2019-03-28T21:25:29.613Z,204.43
2019-03-28T21:27:33.366Z,210.55
2019-03-28T21:29:48.286Z,266.05
2019-03-28T21:31:49.707Z,217.93
2019-03-28T21:33:47.415Z,182.07
2019-03-28T21:35:51.284Z,155.70
2019-03-28T21:37:55.051Z,183.25
2019-03-28T21:39:59.011Z,187.80
2019-03-28T21:42:02.900Z,174.38
2019-03-28T21:44:06.366Z,174.65
2019-03-28T21:46:09.902Z,183.30
2019-03-28T21:48:13.449Z,183.50
2019-03-28T21:50:17.156Z,203.25
2019-03-28T21:52:20.721Z,183.70
2019-03-28T21:54:25.376Z,188.62
2019-03-28T21:56:29.718Z,196.80
2019-03-28T21:58:33.629Z,191.22
2019-03-28T22:00:37.160Z,204.25
2019-03-28T22:02:41.387Z,203.52
2019-03-28T22:04:44.848Z,180.35
2019-03-28T22:06:49.010Z,186.80
2019-03-28T22:08:53.153Z,212.00
2019-03-28T22:10:57.364Z,186.30
2019-03-28T22:13:00.998Z,196.45
2019-03-28T22:15:06.653Z,185.85
2019-03-28T22:17:10.172Z,173.95
2019-03-28T22:19:13.716Z,164.40
2019-03-28T22:21:17.320Z,166.97
2019-03-28T22:23:21.166Z,188.52
2019-03-28T22:25:24.657Z,186.73
2019-03-28T22:27:28.253Z,165.70
2019-03-28T22:29:31.992Z,175.82
2019-03-28T22:31:35.460Z,164.03
2019-03-28T22:33:39.288Z,139.45
2019-03-28T22:35:42.753Z,142.03
2019-03-28T22:37:46.280Z,148.62
2019-03-28T22:39:50.670Z,133.90
2019-03-28T22:41:54.212Z,141.82
2019-03-28T22:43:58.258Z,138.12
2019-03-28T22:46:02.724Z,125.45
2019-03-28T22:48:10.985Z,118.33
2019-03-28T22:50:12.264Z,117.67
2019-03-28T22:52:15.990Z,110.28
2019-03-28T22:54:19.603Z,114.75
2019-03-28T22:56:23.623Z,126.87
2019-03-28T22:58:27.448Z,97.40
2019-03-28T23:00:41.684Z,109.72
2019-03-28T23:02:45.556Z,157.97
2019-03-28T23:04:49.017Z,156.22
2019-03-28T23:06:52.726Z,125.40
2019-03-28T23:08:56.268Z,131.87
2019-03-28T23:10:59.757Z,120.95
2019-03-28T23:13:03.361Z,115.82
2019-03-28T23:15:09.214Z,132.05
2019-03-28T23:17:12.797Z,121.07
2019-03-28T23:19:16.260Z,121.33
2019-03-28T23:21:19.906Z,106.25
2019-03-28T23:23:23.372Z,93.52
2019-03-28T23:25:26.833Z,76.82
2019-03-28T23:27:30.295Z,77.03
2019-03-28T23:29:34.144Z,79.03
2019-03-28T23:31:38.556Z,115.20
2019-03-28T23:33:42.253Z,128.38
2019-03-28T23:35:46.348Z,300.07
2019-03-28T23:37:50.175Z,134.97
2019-03-28T23:39:53.717Z,111.88
2019-03-28T23:41:57.184Z,94.30
2019-03-28T23:44:01.831Z,87.02
2019-03-28T23:46:05.731Z,84.25
2019-03-28T23:48:09.809Z,75.20
2019-03-28T23:50:14.052Z,86.85
2019-03-28T23:52:17.596Z,103.62
2019-03-28T23:54:21.142Z,101.50
2019-03-28T23:56:24.683Z,120.67
2019-03-28T23:58:28.238Z,155.22
